Terminal Aerodrome Forecast
Issued by NWS Cleveland, OH

Home | Current Version | Previous Version | Text Only | Print | Product List | Glossary Off
Versions: 1 2 3 4 5 6 7 8 9 10 11 12 13 14

354
FTUS41 KCLE 131526 AAA
TAFYNG
TAF AMD
KYNG 131526Z 1315/1412 35006KT P6SM BKN025
     FM131800 35006KT P6SM SCT035
     FM140100 03004KT P6SM SCT250
     FM140900 08003KT 5SM BR SCT250=

USA.gov is the U.S. government's official web portal to all federal, state and local government web resources and services.